Data for 03/15/2010

Time Sea-Level Adjusted Pressure Absolute Pressure Temperature Relative Humidity Dew Point   
(mb) (inHg) (mb) (inHg) (C) (F) (%) (C) (F)
00:05 1027 30.33 856 25.28 0.1 32.2 73 -4.2 24.4
00:10 1027 30.33 856 25.28 -0.1 31.7 73 -4.4 24.1
00:15 1027 30.33 856 25.28 -0.3 31.4 74 -4.4 24.1
00:20 1027 30.33 856 25.28 -0.3 31.5 73 -4.5 23.8
00:25 1027 30.33 856 25.28 -0.3 31.5 73 -4.6 23.8
00:30 1027 30.33 856 25.28 -0.3 31.5 72 -4.7 23.5
00:35 1027 30.33 856 25.28 -0.3 31.4 73 -4.5 23.9
00:40 1027 30.33 856 25.28 -0.5 31.1 75 -4.4 24.1
00:45 1027 30.33 856 25.28 -0.8 30.6 76 -4.6 23.7
00:50 1027 30.33 856 25.28 -0.9 30.4 75 -4.7 23.5
00:55 1027 30.33 856 25.28 -0.7 30.7 73 -5.1 22.9
01:55 1027 30.33 856 25.28 -0.5 31 73 -4.8 23.3
02:00 1027 30.33 856 25.28 -0.6 30.9 73 -4.9 23.2
02:05 1027 30.33 856 25.28 -0.7 30.7 74 -4.8 23.3
02:10 1027 30.33 856 25.28 -0.8 30.6 73 -5.1 22.9
02:15 1027 30.33 856 25.28 -0.8 30.6 73 -5 23.1
02:20 1027 30.33 856 25.28 -0.9 30.4 74 -4.9 23.1
02:25 1027 30.33 856 25.28 -1 30.3 75 -4.9 23.1
02:30 1027 30.33 856 25.28 -0.9 30.3 74 -4.9 23.1
02:35 1027 30.33 856 25.28 -0.8 30.6 74 -4.9 23.1
02:40 1027 30.33 856 25.28 -0.6 30.9 74 -4.7 23.6
02:45 1027 30.33 856 25.28 -0.3 31.5 70 -5.1 22.9
02:50 1027 30.33 856 25.28 -0 32 70 -4.8 23.3
02:55 1027 30.33 856 25.28 0 32.1 69 -5 23.1
03:00 1027 30.33 856 25.28 0 32 70 -4.9 23.2
03:05 1027 30.33 856 25.28 -0.1 31.7 71 -4.7 23.5
03:10 1027 30.33 856 25.28 -0.5 31.2 73 -4.8 23.4
03:15 1027 30.33 856 25.28 -0.6 30.9 75 -4.6 23.8
03:20 1027 30.33 856 25.28 -0.8 30.6 76 -4.6 23.7
03:25 1027 30.33 856 25.28 -1.1 29.9 78 -4.6 23.8
03:30 1027 30.33 856 25.28 -1.4 29.5 80 -4.5 23.9
03:35 1027 30.33 856 25.28 -1.3 29.6 77 -4.8 23.4
03:40 1027 30.33 856 25.28 -1.2 29.9 78 -4.5 23.9
03:45 1027 30.33 856 25.28 -1.1 30.1 78 -4.4 24
03:50 1027 30.33 856 25.28 -1.2 29.8 79 -4.4 24
03:55 1027 30.33 856 25.28 -1.1 29.9 79 -4.3 24.2
04:00 1027 30.33 856 25.28 -1.5 29.4 79 -4.6 23.8
04:05 1027 30.33 856 25.28 -1.8 28.8 80 -4.8 23.4
04:10 1027 30.33 856 25.28 -2 28.3 81 -4.9 23.1
04:15 1027 30.33 856 25.28 -2.2 28.1 81 -5 22.9
04:20 1027 30.33 856 25.28 -2.1 28.3 80 -5 22.9
04:25 1027 30.33 856 25.28 -2 28.5 80 -4.9 23.2
04:30 1027 30.33 856 25.28 -1.7 28.9 79 -4.8 23.3
04:35 1027 30.33 856 25.28 -1.7 28.9 79 -4.9 23.2
04:40 1027 30.33 856 25.28 -1.8 28.7 79 -5 23
04:45 1027 30.33 856 25.28 -1.9 28.6 79 -5.1 22.8
04:50 1027 30.33 856 25.28 -1.6 29 78 -5 23
04:55 1027 30.33 856 25.28 -1.2 29.8 77 -4.8 23.4
05:00 1027 30.33 856 25.28 -1 30.2 76 -4.6 23.7
05:05 1027 30.33 856 25.28 -0.9 30.3 78 -4.2 24.4
05:10 1027 30.33 856 25.28 -1 30.2 78 -4.3 24.2
05:15 1027 30.33 856 25.28 -1.4 29.5 80 -4.5 24
05:20 1027 30.33 857 25.31 -1.9 28.5 82 -4.7 23.6
05:25 1027 30.33 857 25.31 -2.1 28.2 81 -5 22.9
05:30 1027 30.33 857 25.31 -2.3 27.9 82 -4.9 23.1
05:35 1027 30.33 857 25.31 -2.1 28.3 80 -5 22.9
05:40 1027 30.33 857 25.31 -1.8 28.7 82 -4.6 23.8
05:45 1027 30.33 857 25.31 -2 28.4 82 -4.7 23.5
05:50 1027 30.33 857 25.31 -2.2 28.1 83 -4.7 23.5
05:55 1027 30.33 857 25.31 -2.2 28.1 81 -5 22.9
06:00 1027 30.33 857 25.31 -2.2 28.1 80 -5.2 22.7
06:05 1027 30.33 857 25.31 -1.9 28.5 79 -5.1 22.9
06:10 1028 30.36 857 25.31 -1.7 29 78 -5 23
06:15 1028 30.36 857 25.31 -1.7 28.9 78 -5.1 22.9
06:20 1028 30.36 857 25.31 -2 28.4 80 -5 22.9
06:25 1028 30.36 857 25.31 -2.8 26.9 83 -5.4 22.3
06:30 1028 30.36 857 25.31 -2.9 26.8 83 -5.4 22.2
06:35 1028 30.36 857 25.31 -2.7 27.2 83 -5.2 22.7
06:40 1028 30.36 857 25.31 -2.6 27.4 82 -5.2 22.7
06:45 1028 30.36 857 25.31 -2.6 27.2 83 -5.2 22.6
06:50 1028 30.36 857 25.31 -2.5 27.5 81 -5.3 22.4
06:55 1028 30.36 857 25.31 -2.6 27.3 82 -5.4 22.4
07:00 1028 30.36 857 25.31 -2.8 27 82 -5.4 22.3
07:05 1028 30.36 857 25.31 -2.8 26.9 82 -5.5 22.2
07:10 1028 30.36 857 25.31 -3 26.7 83 -5.5 22.1
07:15 1028 30.36 857 25.31 -3 26.6 83 -5.5 22.1
07:20 1028 30.36 857 25.31 -3.1 26.5 83 -5.5 22
07:25 1028 30.36 857 25.31 -2.9 26.7 83 -5.5 22.1
07:30 1028 30.36 857 25.31 -2.8 26.9 82 -5.4 22.2
07:35 1028 30.36 857 25.31 -2.9 26.8 82 -5.5 22.1
07:40 1028 30.36 857 25.31 -3 26.6 83 -5.4 22.3
07:45 1028 30.36 857 25.31 -3.1 26.4 84 -5.4 22.3
07:50 1028 30.36 857 25.31 -2.9 26.8 83 -5.3 22.4
07:55 1028 30.36 857 25.31 -2.7 27.2 82 -5.3 22.5
08:00 1028 30.36 857 25.31 -2.4 27.6 81 -5.2 22.6
08:05 1028 30.36 857 25.31 -2.5 27.6 81 -5.3 22.5
08:10 1028 30.36 857 25.31 -2.3 27.8 80 -5.3 22.4
08:15 1028 30.36 857 25.31 -2.5 27.5 82 -5.2 22.7
08:20 1028 30.36 858 25.34 -2.3 27.8 80 -5.3 22.5
08:25 1028 30.36 858 25.34 -2.4 27.6 81 -5.3 22.4
08:30 1028 30.36 858 25.34 -2.4 27.7 81 -5.3 22.5
08:35 1028 30.36 858 25.34 -2 28.3 79 -5.2 22.6
08:40 1028 30.36 858 25.34 -1.9 28.7 79 -5.1 22.9
08:45 1028 30.36 858 25.34 -1.7 29 78 -5.1 22.9
08:50 1028 30.36 858 25.34 -1.5 29.3 77 -5.1 22.9
08:55 1028 30.36 858 25.34 -1.3 29.7 75 -5.1 22.9
09:00 1028 30.36 858 25.34 -1.4 29.6 77 -4.9 23.2
09:05 1029 30.39 858 25.34 -1.2 29.8 76 -4.9 23.2
09:10 1029 30.39 858 25.34 -0.9 30.3 74 -5 23
09:15 1029 30.39 858 25.34 -0.5 31 73 -4.9 23.2
09:20 1029 30.39 858 25.34 -0 32 71 -4.7 23.5
09:25 1029 30.39 858 25.34 0.5 32.9 70 -4.4 24.1
09:30 1029 30.39 858 25.34 1.4 34.5 66 -4.2 24.5
09:35 1029 30.39 858 25.34 1.7 35.1 64 -4.3 24.3
09:40 1029 30.39 858 25.34 2 35.7 64 -4.1 24.6
09:45 1029 30.39 858 25.34 2.5 36.5 61 -4.3 24.3
09:50 1029 30.39 858 25.34 2.5 36.5 64 -3.7 25.3
09:55 1029 30.39 858 25.34 2.4 36.3 63 -3.9 25
10:00 1029 30.39 858 25.34 2.5 36.5 63 -3.8 25.1
10:05 1029 30.39 858 25.34 2.8 37.1 62 -3.7 25.3
10:10 1029 30.39 858 25.34 3.5 38.2 58 -3.9 24.9
10:15 1029 30.39 858 25.34 3.1 37.6 61 -3.7 25.3
10:20 1029 30.39 858 25.34 3.3 38 58 -4.1 24.7
10:25 1029 30.39 858 25.34 3.6 38.5 58 -3.8 25.1
10:30 1029 30.39 858 25.34 3.8 38.8 57 -3.9 25
10:35 1029 30.39 858 25.34 4.1 39.3 55 -4.1 24.7
10:40 1029 30.39 858 25.34 4.3 39.7 58 -3.3 26.1
10:45 1029 30.39 858 25.34 4.6 40.3 57 -3.3 26.1
10:50 1029 30.39 858 25.34 4.9 40.7 55 -3.3 26
10:55 1029 30.39 858 25.34 5.3 41.6 52 -3.7 25.3
11:00 1029 30.39 858 25.34 5.5 41.8 54 -3.2 26.3
11:05 1029 30.39 858 25.34 4.7 40.5 55 -3.5 25.7
11:10 1029 30.39 858 25.34 5.3 41.5 54 -3.3 26
11:15 1029 30.39 858 25.34 6 42.7 50 -3.6 25.6
11:20 1029 30.39 858 25.34 5.1 41.2 54 -3.4 25.9
11:25 1029 30.39 858 25.34 5.7 42.3 49 -4.3 24.3
11:30 1029 30.39 858 25.34 6.1 43 49 -3.9 25.1
11:35 1029 30.39 858 25.34 6.1 42.9 51 -3.4 25.9
11:40 1029 30.39 858 25.34 5.4 41.8 52 -3.5 25.6
11:45 1029 30.39 858 25.34 6 42.8 49 -3.9 25
11:50 1029 30.39 858 25.34 6.6 43.8 50 -3.2 26.2
11:55 1029 30.39 858 25.34 6.5 43.7 49 -3.6 25.6
12:00 1029 30.39 858 25.34 6.3 43.4 51 -3.2 26.2
12:05 1029 30.39 858 25.34 6.1 43 51 -3.3 26
12:10 1029 30.39 858 25.34 6.5 43.6 48 -3.6 25.5
12:15 1029 30.39 858 25.34 6.6 43.8 48 -3.6 25.5
12:20 1029 30.39 858 25.34 6.5 43.8 48 -3.7 25.4
12:25 1029 30.39 858 25.34 6.4 43.6 47 -3.9 24.9
12:30 1029 30.39 858 25.34 6 42.7 48 -4.3 24.2
12:35 1029 30.39 858 25.34 6 42.8 48 -4.1 24.5
12:40 1029 30.39 858 25.34 6.4 43.5 47 -4.2 24.4
12:45 1029 30.39 858 25.34 6.9 44.4 45 -4.1 24.6
12:50 1029 30.39 858 25.34 6.8 44.2 47 -3.7 25.3
12:55 1029 30.39 858 25.34 7.4 45.2 44 -4.1 24.6
13:00 1029 30.39 858 25.34 7.3 45.2 46 -3.5 25.7
13:05 1029 30.39 858 25.34 7.5 45.4 46 -3.4 25.9
13:10 1029 30.39 858 25.34 8.3 46.9 42 -3.9 24.9
13:15 1029 30.39 858 25.34 8.9 48 42 -3.2 26.3
13:20 1029 30.39 858 25.34 9 48.1 44 -2.6 27.3
13:25 1029 30.39 858 25.34 8.2 46.7 43 -3.6 25.6
13:30 1029 30.39 858 25.34 8.5 47.3 46 -2.3 27.8
13:35 1029 30.39 858 25.34 8.6 47.5 43 -3.3 26.1
13:40 1029 30.39 858 25.34 9.2 48.5 43 -2.6 27.3
13:45 1029 30.39 858 25.34 9.5 49.2 40 -3.3 26.1
13:50 1029 30.39 858 25.34 10.1 50.2 39 -3.1 26.4
13:55 1029 30.39 858 25.34 10.4 50.7 39 -2.8 26.9
14:00 1029 30.39 858 25.34 10.1 50.2 40 -2.8 26.9
14:05 1029 30.39 858 25.34 10.3 50.5 39 -2.9 26.7
14:10 1029 30.39 858 25.34 10.4 50.7 37 -3.6 25.5
14:15 1029 30.39 858 25.34 10.5 50.9 40 -2.6 27.4
14:20 1029 30.39 858 25.34 10.5 50.9 41 -2.3 27.8
14:25 1029 30.39 858 25.34 10 50 42 -2.2 28
14:30 1028 30.36 858 25.34 9.9 49.8 42 -2.3 27.8
14:35 1028 30.36 858 25.34 9.9 49.8 41 -2.7 27.1
14:40 1028 30.36 858 25.34 10 50 42 -2.4 27.7
14:45 1028 30.36 857 25.31 8.8 47.9 44 -2.6 27.2
14:50 1028 30.36 857 25.31 8.6 47.5 45 -2.5 27.4
14:55 1028 30.36 857 25.31 8.2 46.8 45 -3.1 26.4
15:00 1028 30.36 857 25.31 7.8 46 47 -3 26.7
15:05 1028 30.36 857 25.31 7.6 45.7 46 -3.3 26.1
15:10 1028 30.36 857 25.31 7.9 46.2 46 -3 26.6
15:15 1028 30.36 857 25.31 8.2 46.7 44 -3.3 26
15:20 1028 30.36 857 25.31 8.5 47.2 43 -3.5 25.7
15:25 1028 30.36 857 25.31 8.4 47.2 44 -3.2 26.3
15:30 1028 30.36 857 25.31 8.2 46.7 45 -3.2 26.3
15:35 1028 30.36 857 25.31 8.5 47.2 44 -3 26.5
15:40 1028 30.36 857 25.31 8.6 47.4 44 -3 26.7
15:45 1028 30.36 857 25.31 8.7 47.6 44 -3 26.7
15:50 1028 30.36 857 25.31 8.8 47.8 42 -3.4 25.8
15:55 1028 30.36 857 25.31 9.5 49.1 40 -3.5 25.8
16:00 1028 30.36 857 25.31 9.8 49.6 41 -2.9 26.8
16:05 1028 30.36 857 25.31 10.2 50.4 38 -3.5 25.7
16:10 1028 30.36 857 25.31 10 49.9 39 -3.4 25.9
16:15 1028 30.36 857 25.31 10.5 50.8 36 -3.9 24.9
16:20 1028 30.36 857 25.31 11.2 52.1 37 -3 26.6
16:25 1028 30.36 857 25.31 10.9 51.6 37 -3.1 26.4
16:30 1028 30.36 857 25.31 10.9 51.5 35 -3.9 25
16:35 1028 30.36 857 25.31 11.5 52.6 34 -4 24.8
16:40 1028 30.36 857 25.31 11.4 52.5 35 -3.5 25.7
16:45 1028 30.36 857 25.31 11.1 52 32 -4.8 23.4
16:50 1028 30.36 857 25.31 11.9 53.4 31 -4.5 23.9
16:55 1028 30.36 857 25.31 11.9 53.4 34 -3.6 25.5
17:00 1028 30.36 857 25.31 10.7 51.2 34 -4.6 23.7
17:05 1028 30.36 857 25.31 9.8 49.7 36 -4.4 24.1
17:10 1028 30.36 857 25.31 9.2 48.6 37 -4.7 23.5
17:15 1028 30.36 857 25.31 9.2 48.6 35 -5.4 22.3
17:20 1028 30.36 857 25.31 9.5 49.1 34 -5.6 21.9
17:25 1028 30.36 857 25.31 9.4 49 35 -5.2 22.7
17:30 1028 30.36 857 25.31 9.8 49.7 34 -5.3 22.5
17:35 1028 30.36 857 25.31 10 49.9 32 -5.8 21.6
17:40 1028 30.36 857 25.31 10 49.9 32 -5.9 21.5
17:45 1028 30.36 857 25.31 10.6 51.1 31 -5.8 21.5
17:50 1028 30.36 857 25.31 10.6 51.1 30 -6.3 20.6
17:55 1028 30.36 857 25.31 11 51.8 29 -6.3 20.6
18:00 1028 30.36 857 25.31 11 51.8 28 -6.7 19.9
18:05 1028 30.36 857 25.31 11.2 52.1 28 -6.8 19.8
18:10 1028 30.36 857 25.31 10.9 51.7 29 -6.6 20.1
18:15 1028 30.36 857 25.31 10.5 51 29 -6.8 19.7
18:20 1028 30.36 857 25.31 10.3 50.5 30 -6.6 20
18:25 1028 30.36 857 25.31 10.2 50.4 31 -6.2 20.8
18:30 1028 30.36 857 25.31 10 49.9 31 -6.2 20.8
18:35 1028 30.36 857 25.31 10.1 50.2 30 -6.8 19.7
18:40 1028 30.36 857 25.31 10 50 32 -6 21.3
18:45 1028 30.36 857 25.31 10.1 50.2 34 -5.1 22.9
18:50 1028 30.36 857 25.31 9.4 49 37 -4.4 24.1
18:55 1028 30.36 857 25.31 9 48.3 37 -4.9 23.2
19:00 1028 30.36 857 25.31 9 48.2 37 -4.8 23.4
19:05 1028 30.36 857 25.31 9.1 48.4 38 -4.6 23.7
19:10 1028 30.36 857 25.31 8.7 47.7 40 -4.1 24.6
19:15 1028 30.36 857 25.31 8.3 46.9 41 -4.3 24.3
19:20 1028 30.36 857 25.31 7.8 46 42 -4.4 24.1
19:25 1028 30.36 857 25.31 7.1 44.8 44 -4.3 24.2
19:30 1028 30.36 857 25.31 6.8 44.2 44 -4.6 23.7
19:35 1028 30.36 857 25.31 6.6 43.8 45 -4.4 24
19:40 1028 30.36 857 25.31 6.2 43.1 47 -4.4 24.2
19:45 1028 30.36 857 25.31 5.9 42.5 47 -4.7 23.6
19:50 1028 30.36 857 25.31 5.5 41.9 48 -4.6 23.7
19:55 1028 30.36 857 25.31 5 41 48 -5.2 22.7
20:00 1028 30.36 857 25.31 4.9 40.9 48 -5.3 22.5
20:05 1028 30.36 857 25.31 4.8 40.6 46 -5.8 21.5
20:10 1028 30.36 857 25.31 4.6 40.3 46 -6.1 21.1
20:15 1028 30.36 857 25.31 4.6 40.2 46 -6.1 21
20:20 1028 30.36 857 25.31 4.5 40.2 43 -7.1 19.2
20:25 1028 30.36 857 25.31 5 41 40 -7.4 18.6
20:30 1028 30.36 858 25.34 5 41 40 -7.3 18.8
20:35 1028 30.36 858 25.34 4.7 40.4 40 -7.7 18.2
20:40 1028 30.36 857 25.31 4.5 40.1 41 -7.7 18.2
20:45 1028 30.36 857 25.31 4.3 39.7 42 -7.6 18.3
20:50 1028 30.36 858 25.34 4.2 39.6 39 -8.4 16.9
20:55 1028 30.36 858 25.34 4.5 40 37 -9.1 15.5
21:00 1028 30.36 858 25.34 4.7 40.4 36 -9.2 15.5
21:05 1028 30.36 858 25.34 4.8 40.7 34 -9.9 14.2
21:10 1028 30.36 858 25.34 5 40.9 35 -9.2 15.5
21:15 1028 30.36 858 25.34 4.6 40.2 37 -8.9 16
21:20 1028 30.36 858 25.34 4.2 39.6 38 -8.8 16.2
21:25 1028 30.36 858 25.34 4.1 39.3 38 -8.9 16
21:30 1028 30.36 858 25.34 3.9 39 40 -8.5 16.6
21:35 1028 30.36 858 25.34 3.8 38.8 40 -8.8 16.2
21:40 1028 30.36 858 25.34 4 39.1 38 -9 15.9
21:45 1028 30.36 858 25.34 4 39.3 38 -9.1 15.7
21:50 1029 30.39 858 25.34 4.1 39.4 37 -9.2 15.5
21:55 1029 30.39 858 25.34 4.2 39.6 36 -9.6 14.8
22:00 1029 30.39 858 25.34 4.3 39.7 37 -9.2 15.4
22:05 1029 30.39 858 25.34 4.3 39.7 36 -9.4 15.1
22:10 1029 30.39 858 25.34 4.3 39.8 37 -9.1 15.7
22:15 1029 30.39 858 25.34 3.9 39 39 -8.9 16
22:20 1029 30.39 858 25.34 3.5 38.4 41 -8.4 16.9
22:25 1029 30.39 858 25.34 3.2 37.7 43 -8.4 16.9
22:30 1029 30.39 858 25.34 3 37.4 43 -8.5 16.7
22:35 1029 30.39 858 25.34 3 37.4 42 -8.6 16.5
22:40 1029 30.39 858 25.34 3.1 37.5 41 -8.8 16.2
22:45 1029 30.39 858 25.34 3.2 37.7 41 -8.8 16.2
22:50 1029 30.39 858 25.34 3.3 37.9 40 -9 15.9
22:55 1029 30.39 858 25.34 3.4 38.2 39 -9.3 15.2
23:00 1029 30.39 858 25.34 3.6 38.5 39 -9.1 15.5
23:05 1029 30.39 858 25.34 3.6 38.5 38 -9.3 15.3
23:10 1029 30.39 858 25.34 3.7 38.6 39 -9.1 15.6
23:15 1029 30.39 858 25.34 3.7 38.6 39 -9 15.7
23:20 1029 30.39 858 25.34 3.6 38.6 40 -8.6 16.5
23:25 1029 30.39 858 25.34 3.8 38.9 39 -9 15.8
23:30 1029 30.39 858 25.34 4.2 39.5 38 -8.9 15.9
23:35 1028 30.36 858 25.34 4.2 39.5 37 -9.4 15.1
23:40 1029 30.39 858 25.34 3.9 39.1 39 -8.9 16
23:45 1029 30.39 858 25.34 3.9 39 38 -9 15.8
23:50 1028 30.36 858 25.34 4.1 39.3 36 -9.6 14.7
23:55 1028 30.36 858 25.34 4.2 39.6 38 -8.9 15.9
24:00 1029 30.39 858 25.34 4.1 39.4 40 -8.4 16.9